DABC

Mohamed Boudiaf International Airport

Constantine, Algeria
METAR DABC 160030Z 24003KT 200V280 9999 FEW023 05/03 Q1024
Observed Flight Rules
Dec-16 @ 00:30 UTC (45 minutes ago) Visual Flight Rules
Wind Visibility Clouds
240° at 3 knots 10,000+ meters
  • Few at 2,300' AGL
Temperatures Readings
Current 5°C / 41°F
Dewpoint 3°C / 37°F
Humidity 87%
Altimeter 30.24" Hg
Pressure 1024 hPa
Elevation 694
METAR DABC 160030Z 24003KT 200V280 9999 FEW023 05/03 Q1024
Observed Flight Rules
Dec-16 @ 00:30 UTC
(45 minutes ago)
VFR
Wind Visibility
240° at 3 knots 10,000+ meters
Clouds
  • Few at 2,300' AGL
Temperature Dewpoint
5°C / 41°F 3°C / 37°F
Humidity Altimeter Pressure
87% 30.24" Hg 1024 hPa